sensor_id;sensor_type;location;lat;lon;timestamp;P1;durP1;ratioP1;P2;durP2;ratioP2
56517;SDS011;42419;48.760;2.322;2022-11-27T00:00:51;4.43;;;3.30;;
56517;SDS011;42419;48.760;2.322;2022-11-27T00:03:16;6.57;;;3.03;;
56517;SDS011;42419;48.760;2.322;2022-11-27T00:05:49;7.50;;;3.67;;
56517;SDS011;42419;48.760;2.322;2022-11-27T00:08:19;3.33;;;3.00;;
56517;SDS011;42419;48.760;2.322;2022-11-27T00:10:45;4.97;;;2.90;;
56517;SDS011;42419;48.760;2.322;2022-11-27T00:13:10;5.90;;;3.77;;
56517;SDS011;42419;48.760;2.322;2022-11-27T00:15:35;3.83;;;3.27;;
56517;SDS011;42419;48.760;2.322;2022-11-27T00:18:01;5.00;;;3.07;;
56517;SDS011;42419;48.760;2.322;2022-11-27T00:20:26;3.77;;;3.40;;
56517;SDS011;42419;48.760;2.322;2022-11-27T00:22:51;3.90;;;3.00;;
56517;SDS011;42419;48.760;2.322;2022-11-27T00:25:17;5.57;;;3.57;;
56517;SDS011;42419;48.760;2.322;2022-11-27T00:27:42;8.60;;;3.83;;
56517;SDS011;42419;48.760;2.322;2022-11-27T00:30:07;8.30;;;3.60;;
56517;SDS011;42419;48.760;2.322;2022-11-27T00:32:33;7.00;;;3.83;;
56517;SDS011;42419;48.760;2.322;2022-11-27T00:34:58;8.90;;;3.90;;
56517;SDS011;42419;48.760;2.322;2022-11-27T00:37:24;6.50;;;3.47;;
56517;SDS011;42419;48.760;2.322;2022-11-27T00:39:49;6.40;;;2.90;;
56517;SDS011;42419;48.760;2.322;2022-11-27T00:42:14;7.77;;;3.90;;
56517;SDS011;42419;48.760;2.322;2022-11-27T00:44:40;8.30;;;3.57;;
56517;SDS011;42419;48.760;2.322;2022-11-27T00:47:05;6.73;;;2.80;;
56517;SDS011;42419;48.760;2.322;2022-11-27T00:49:30;6.13;;;3.63;;
56517;SDS011;42419;48.760;2.322;2022-11-27T00:51:56;5.00;;;3.07;;
56517;SDS011;42419;48.760;2.322;2022-11-27T00:54:21;6.87;;;3.30;;
56517;SDS011;42419;48.760;2.322;2022-11-27T00:56:47;5.87;;;3.30;;
56517;SDS011;42419;48.760;2.322;2022-11-27T00:59:12;4.73;;;2.73;;
56517;SDS011;42419;48.760;2.322;2022-11-27T01:01:38;3.73;;;2.90;;
56517;SDS011;42419;48.760;2.322;2022-11-27T01:04:06;6.20;;;3.00;;
56517;SDS011;42419;48.760;2.322;2022-11-27T01:06:32;4.43;;;3.10;;
56517;SDS011;42419;48.760;2.322;2022-11-27T01:08:58;6.40;;;3.33;;
56517;SDS011;42419;48.760;2.322;2022-11-27T01:11:25;4.60;;;3.20;;
56517;SDS011;42419;48.760;2.322;2022-11-27T01:13:56;4.83;;;3.20;;
56517;SDS011;42419;48.760;2.322;2022-11-27T01:16:30;3.07;;;2.60;;
56517;SDS011;42419;48.760;2.322;2022-11-27T01:18:57;8.20;;;3.43;;
56517;SDS011;42419;48.760;2.322;2022-11-27T01:21:25;5.10;;;2.83;;
56517;SDS011;42419;48.760;2.322;2022-11-27T01:23:52;4.53;;;2.90;;
56517;SDS011;42419;48.760;2.322;2022-11-27T01:26:18;3.50;;;2.57;;
56517;SDS011;42419;48.760;2.322;2022-11-27T01:28:44;4.07;;;3.13;;
56517;SDS011;42419;48.760;2.322;2022-11-27T01:31:12;7.00;;;3.10;;
56517;SDS011;42419;48.760;2.322;2022-11-27T01:33:39;3.80;;;3.10;;
56517;SDS011;42419;48.760;2.322;2022-11-27T01:36:06;3.50;;;3.17;;
56517;SDS011;42419;48.760;2.322;2022-11-27T01:38:32;4.17;;;2.50;;
56517;SDS011;42419;48.760;2.322;2022-11-27T01:40:58;2.60;;;2.23;;
56517;SDS011;42419;48.760;2.322;2022-11-27T01:46:02;3.40;;;2.63;;
56517;SDS011;42419;48.760;2.322;2022-11-27T01:48:28;3.37;;;3.00;;
56517;SDS011;42419;48.760;2.322;2022-11-27T01:50:53;3.40;;;2.47;;
56517;SDS011;42419;48.760;2.322;2022-11-27T01:53:19;5.30;;;3.23;;
56517;SDS011;42419;48.760;2.322;2022-11-27T01:55:45;2.73;;;2.53;;
56517;SDS011;42419;48.760;2.322;2022-11-27T01:58:16;5.43;;;3.60;;
56517;SDS011;42419;48.760;2.322;2022-11-27T02:00:48;3.97;;;2.80;;
56517;SDS011;42419;48.760;2.322;2022-11-27T02:03:13;4.97;;;2.60;;
56517;SDS011;42419;48.760;2.322;2022-11-27T02:05:39;5.13;;;2.50;;
56517;SDS011;42419;48.760;2.322;2022-11-27T02:08:06;2.77;;;2.53;;
56517;SDS011;42419;48.760;2.322;2022-11-27T02:13:35;3.83;;;2.57;;
56517;SDS011;42419;48.760;2.322;2022-11-27T02:18:57;3.80;;;2.90;;
56517;SDS011;42419;48.760;2.322;2022-11-27T02:22:24;3.07;;;2.50;;
56517;SDS011;42419;48.760;2.322;2022-11-27T02:27:27;3.97;;;2.93;;
56517;SDS011;42419;48.760;2.322;2022-11-27T02:30:07;3.20;;;2.37;;
56517;SDS011;42419;48.760;2.322;2022-11-27T02:35:18;2.87;;;2.60;;
56517;SDS011;42419;48.760;2.322;2022-11-27T02:38:01;4.27;;;2.53;;
56517;SDS011;42419;48.760;2.322;2022-11-27T02:40:34;3.93;;;2.50;;
56517;SDS011;42419;48.760;2.322;2022-11-27T02:46:03;2.53;;;2.33;;
56517;SDS011;42419;48.760;2.322;2022-11-27T02:48:33;3.20;;;2.67;;
56517;SDS011;42419;48.760;2.322;2022-11-27T02:51:04;2.60;;;2.40;;
56517;SDS011;42419;48.760;2.322;2022-11-27T02:53:39;2.77;;;2.53;;
56517;SDS011;42419;48.760;2.322;2022-11-27T02:56:11;2.80;;;2.53;;
56517;SDS011;42419;48.760;2.322;2022-11-27T02:58:40;3.57;;;2.70;;
56517;SDS011;42419;48.760;2.322;2022-11-27T03:01:06;2.70;;;2.17;;
56517;SDS011;42419;48.760;2.322;2022-11-27T03:03:35;6.03;;;2.60;;
56517;SDS011;42419;48.760;2.322;2022-11-27T03:06:07;2.90;;;2.20;;
56517;SDS011;42419;48.760;2.322;2022-11-27T03:08:49;2.77;;;1.87;;
56517;SDS011;42419;48.760;2.322;2022-11-27T03:11:19;4.67;;;2.63;;
56517;SDS011;42419;48.760;2.322;2022-11-27T03:13:47;3.50;;;2.60;;
56517;SDS011;42419;48.760;2.322;2022-11-27T03:21:58;2.10;;;1.90;;
56517;SDS011;42419;48.760;2.322;2022-11-27T03:24:25;2.63;;;2.40;;
56517;SDS011;42419;48.760;2.322;2022-11-27T03:26:51;2.50;;;2.13;;
56517;SDS011;42419;48.760;2.322;2022-11-27T03:29:19;2.63;;;2.30;;
56517;SDS011;42419;48.760;2.322;2022-11-27T03:31:47;4.40;;;2.90;;
56517;SDS011;42419;48.760;2.322;2022-11-27T03:34:13;2.90;;;2.43;;
56517;SDS011;42419;48.760;2.322;2022-11-27T03:36:40;4.10;;;2.50;;
56517;SDS011;42419;48.760;2.322;2022-11-27T03:39:05;3.60;;;2.83;;
56517;SDS011;42419;48.760;2.322;2022-11-27T03:41:34;3.97;;;2.47;;
56517;SDS011;42419;48.760;2.322;2022-11-27T03:47:20;3.87;;;2.40;;
56517;SDS011;42419;48.760;2.322;2022-11-27T03:50:01;2.93;;;2.60;;
56517;SDS011;42419;48.760;2.322;2022-11-27T03:58:32;2.03;;;1.80;;
56517;SDS011;42419;48.760;2.322;2022-11-27T04:01:06;2.40;;;2.20;;
56517;SDS011;42419;48.760;2.322;2022-11-27T04:03:34;2.77;;;2.47;;
56517;SDS011;42419;48.760;2.322;2022-11-27T04:06:00;2.73;;;2.53;;
56517;SDS011;42419;48.760;2.322;2022-11-27T04:08:26;2.50;;;2.10;;
56517;SDS011;42419;48.760;2.322;2022-11-27T04:10:51;3.87;;;2.13;;
56517;SDS011;42419;48.760;2.322;2022-11-27T04:13:16;2.47;;;2.27;;
56517;SDS011;42419;48.760;2.322;2022-11-27T04:15:42;2.50;;;2.30;;
56517;SDS011;42419;48.760;2.322;2022-11-27T04:18:07;2.37;;;1.93;;
56517;SDS011;42419;48.760;2.322;2022-11-27T04:20:33;2.40;;;1.80;;
56517;SDS011;42419;48.760;2.322;2022-11-27T04:22:58;3.00;;;2.20;;
56517;SDS011;42419;48.760;2.322;2022-11-27T04:25:23;2.57;;;2.10;;
56517;SDS011;42419;48.760;2.322;2022-11-27T04:27:49;2.80;;;2.33;;
56517;SDS011;42419;48.760;2.322;2022-11-27T04:30:15;2.63;;;1.93;;
56517;SDS011;42419;48.760;2.322;2022-11-27T04:32:41;3.73;;;2.13;;
56517;SDS011;42419;48.760;2.322;2022-11-27T04:35:08;3.37;;;2.30;;
56517;SDS011;42419;48.760;2.322;2022-11-27T04:37:33;2.40;;;2.10;;
56517;SDS011;42419;48.760;2.322;2022-11-27T04:39:58;2.27;;;2.00;;
56517;SDS011;42419;48.760;2.322;2022-11-27T04:42:24;2.83;;;2.30;;
56517;SDS011;42419;48.760;2.322;2022-11-27T04:44:49;2.93;;;2.10;;
56517;SDS011;42419;48.760;2.322;2022-11-27T04:47:15;2.13;;;1.93;;
56517;SDS011;42419;48.760;2.322;2022-11-27T04:49:40;2.43;;;2.20;;
56517;SDS011;42419;48.760;2.322;2022-11-27T04:52:05;2.83;;;2.00;;
56517;SDS011;42419;48.760;2.322;2022-11-27T04:54:31;2.50;;;1.90;;
56517;SDS011;42419;48.760;2.322;2022-11-27T04:56:58;2.50;;;2.00;;
56517;SDS011;42419;48.760;2.322;2022-11-27T04:59:23;2.60;;;1.97;;
56517;SDS011;42419;48.760;2.322;2022-11-27T05:01:48;2.30;;;2.10;;
56517;SDS011;42419;48.760;2.322;2022-11-27T05:04:14;2.50;;;2.23;;
56517;SDS011;42419;48.760;2.322;2022-11-27T05:06:39;2.40;;;2.20;;
56517;SDS011;42419;48.760;2.322;2022-11-27T05:09:04;2.30;;;2.10;;
56517;SDS011;42419;48.760;2.322;2022-11-27T05:11:30;2.60;;;2.10;;
56517;SDS011;42419;48.760;2.322;2022-11-27T05:13:56;2.87;;;2.23;;
56517;SDS011;42419;48.760;2.322;2022-11-27T05:16:41;2.43;;;1.93;;
56517;SDS011;42419;48.760;2.322;2022-11-27T05:19:10;2.47;;;1.80;;
56517;SDS011;42419;48.760;2.322;2022-11-27T05:21:36;2.03;;;1.80;;
56517;SDS011;42419;48.760;2.322;2022-11-27T05:24:01;3.20;;;2.33;;
56517;SDS011;42419;48.760;2.322;2022-11-27T05:26:27;2.77;;;2.30;;
56517;SDS011;42419;48.760;2.322;2022-11-27T05:28:52;4.27;;;2.13;;
56517;SDS011;42419;48.760;2.322;2022-11-27T05:31:18;2.53;;;2.17;;
56517;SDS011;42419;48.760;2.322;2022-11-27T05:33:43;2.53;;;1.90;;
56517;SDS011;42419;48.760;2.322;2022-11-27T05:36:08;2.17;;;1.97;;
56517;SDS011;42419;48.760;2.322;2022-11-27T05:38:34;3.50;;;2.00;;
56517;SDS011;42419;48.760;2.322;2022-11-27T05:40:59;2.57;;;2.03;;
56517;SDS011;42419;48.760;2.322;2022-11-27T05:43:24;1.80;;;1.70;;
56517;SDS011;42419;48.760;2.322;2022-11-27T05:45:52;2.00;;;1.80;;
56517;SDS011;42419;48.760;2.322;2022-11-27T05:48:17;2.30;;;1.70;;
56517;SDS011;42419;48.760;2.322;2022-11-27T05:50:43;2.33;;;2.00;;
56517;SDS011;42419;48.760;2.322;2022-11-27T05:53:08;2.50;;;2.10;;
56517;SDS011;42419;48.760;2.322;2022-11-27T05:55:33;2.07;;;1.93;;
56517;SDS011;42419;48.760;2.322;2022-11-27T05:57:59;2.50;;;1.90;;
56517;SDS011;42419;48.760;2.322;2022-11-27T06:00:24;2.33;;;2.13;;
56517;SDS011;42419;48.760;2.322;2022-11-27T06:02:51;2.60;;;1.80;;
56517;SDS011;42419;48.760;2.322;2022-11-27T06:05:16;2.37;;;1.70;;
56517;SDS011;42419;48.760;2.322;2022-11-27T06:07:42;2.23;;;2.03;;
56517;SDS011;42419;48.760;2.322;2022-11-27T06:10:07;2.43;;;1.80;;
56517;SDS011;42419;48.760;2.322;2022-11-27T06:12:33;2.57;;;2.10;;
56517;SDS011;42419;48.760;2.322;2022-11-27T06:14:58;1.73;;;1.60;;
56517;SDS011;42419;48.760;2.322;2022-11-27T06:17:23;2.70;;;2.10;;
56517;SDS011;42419;48.760;2.322;2022-11-27T06:19:49;2.23;;;2.00;;
56517;SDS011;42419;48.760;2.322;2022-11-27T06:22:15;2.67;;;1.80;;
56517;SDS011;42419;48.760;2.322;2022-11-27T06:24:40;2.10;;;1.90;;
56517;SDS011;42419;48.760;2.322;2022-11-27T06:27:06;2.40;;;2.20;;
56517;SDS011;42419;48.760;2.322;2022-11-27T06:29:31;2.80;;;2.00;;
56517;SDS011;42419;48.760;2.322;2022-11-27T06:31:56;2.90;;;2.00;;
56517;SDS011;42419;48.760;2.322;2022-11-27T06:34:22;1.93;;;1.80;;
56517;SDS011;42419;48.760;2.322;2022-11-27T06:36:47;2.53;;;1.80;;
56517;SDS011;42419;48.760;2.322;2022-11-27T06:39:14;1.80;;;1.70;;
56517;SDS011;42419;48.760;2.322;2022-11-27T06:41:39;2.50;;;1.90;;
56517;SDS011;42419;48.760;2.322;2022-11-27T06:44:05;2.40;;;2.07;;
56517;SDS011;42419;48.760;2.322;2022-11-27T06:46:30;2.20;;;2.00;;
56517;SDS011;42419;48.760;2.322;2022-11-27T06:48:56;1.90;;;1.70;;
56517;SDS011;42419;48.760;2.322;2022-11-27T06:51:25;2.10;;;1.90;;
56517;SDS011;42419;48.760;2.322;2022-11-27T06:53:52;2.97;;;2.40;;
56517;SDS011;42419;48.760;2.322;2022-11-27T06:56:20;3.50;;;2.37;;
56517;SDS011;42419;48.760;2.322;2022-11-27T06:58:51;2.33;;;2.13;;
56517;SDS011;42419;48.760;2.322;2022-11-27T07:01:18;2.73;;;2.13;;
56517;SDS011;42419;48.760;2.322;2022-11-27T07:03:43;2.37;;;2.00;;
56517;SDS011;42419;48.760;2.322;2022-11-27T07:06:10;2.67;;;2.00;;
56517;SDS011;42419;48.760;2.322;2022-11-27T07:08:37;2.60;;;1.80;;
56517;SDS011;42419;48.760;2.322;2022-11-27T07:11:04;2.50;;;2.27;;
56517;SDS011;42419;48.760;2.322;2022-11-27T07:13:31;2.07;;;1.90;;
56517;SDS011;42419;48.760;2.322;2022-11-27T07:16:01;2.47;;;1.97;;
56517;SDS011;42419;48.760;2.322;2022-11-27T07:18:27;2.20;;;1.80;;
56517;SDS011;42419;48.760;2.322;2022-11-27T07:20:53;3.17;;;2.00;;
56517;SDS011;42419;48.760;2.322;2022-11-27T07:23:19;2.40;;;2.00;;
56517;SDS011;42419;48.760;2.322;2022-11-27T07:25:44;2.63;;;1.73;;
56517;SDS011;42419;48.760;2.322;2022-11-27T07:28:10;2.77;;;2.30;;
56517;SDS011;42419;48.760;2.322;2022-11-27T07:30:35;2.50;;;1.70;;
56517;SDS011;42419;48.760;2.322;2022-11-27T07:33:00;3.50;;;2.00;;
56517;SDS011;42419;48.760;2.322;2022-11-27T07:35:26;4.73;;;2.00;;
56517;SDS011;42419;48.760;2.322;2022-11-27T07:37:51;2.80;;;1.93;;
56517;SDS011;42419;48.760;2.322;2022-11-27T07:40:16;3.13;;;2.00;;
56517;SDS011;42419;48.760;2.322;2022-11-27T07:42:42;4.80;;;2.60;;
56517;SDS011;42419;48.760;2.322;2022-11-27T07:45:08;3.17;;;1.93;;
56517;SDS011;42419;48.760;2.322;2022-11-27T07:47:34;2.80;;;2.47;;
56517;SDS011;42419;48.760;2.322;2022-11-27T07:50:00;2.10;;;1.90;;
56517;SDS011;42419;48.760;2.322;2022-11-27T07:52:25;2.87;;;2.10;;
56517;SDS011;42419;48.760;2.322;2022-11-27T07:54:51;3.00;;;1.80;;
56517;SDS011;42419;48.760;2.322;2022-11-27T07:57:16;1.80;;;1.70;;
56517;SDS011;42419;48.760;2.322;2022-11-27T07:59:42;3.17;;;2.40;;
56517;SDS011;42419;48.760;2.322;2022-11-27T08:02:11;2.63;;;2.17;;
56517;SDS011;42419;48.760;2.322;2022-11-27T08:04:37;3.13;;;2.37;;
56517;SDS011;42419;48.760;2.322;2022-11-27T08:07:03;4.13;;;2.10;;
56517;SDS011;42419;48.760;2.322;2022-11-27T08:09:28;2.50;;;2.30;;
56517;SDS011;42419;48.760;2.322;2022-11-27T08:11:54;3.40;;;2.40;;
56517;SDS011;42419;48.760;2.322;2022-11-27T08:14:19;4.73;;;2.23;;
56517;SDS011;42419;48.760;2.322;2022-11-27T08:16:44;3.00;;;2.17;;
56517;SDS011;42419;48.760;2.322;2022-11-27T08:19:10;3.47;;;2.53;;
56517;SDS011;42419;48.760;2.322;2022-11-27T08:21:35;2.80;;;1.73;;
56517;SDS011;42419;48.760;2.322;2022-11-27T08:24:01;3.90;;;2.20;;
56517;SDS011;42419;48.760;2.322;2022-11-27T08:26:26;4.90;;;2.70;;
56517;SDS011;42419;48.760;2.322;2022-11-27T08:28:52;2.60;;;2.40;;
56517;SDS011;42419;48.760;2.322;2022-11-27T08:31:19;3.43;;;2.30;;
56517;SDS011;42419;48.760;2.322;2022-11-27T08:33:44;3.83;;;2.27;;
56517;SDS011;42419;48.760;2.322;2022-11-27T08:36:10;3.60;;;2.43;;
56517;SDS011;42419;48.760;2.322;2022-11-27T08:38:36;4.10;;;2.80;;
56517;SDS011;42419;48.760;2.322;2022-11-27T08:41:02;6.40;;;2.60;;
56517;SDS011;42419;48.760;2.322;2022-11-27T08:43:29;4.67;;;2.63;;
56517;SDS011;42419;48.760;2.322;2022-11-27T08:45:54;3.53;;;2.80;;
56517;SDS011;42419;48.760;2.322;2022-11-27T08:48:20;3.57;;;2.30;;
56517;SDS011;42419;48.760;2.322;2022-11-27T08:50:47;5.70;;;2.70;;
56517;SDS011;42419;48.760;2.322;2022-11-27T08:53:13;4.00;;;2.37;;
56517;SDS011;42419;48.760;2.322;2022-11-27T08:55:39;4.30;;;2.50;;
56517;SDS011;42419;48.760;2.322;2022-11-27T08:58:05;4.53;;;2.93;;
56517;SDS011;42419;48.760;2.322;2022-11-27T09:00:32;2.93;;;2.60;;
56517;SDS011;42419;48.760;2.322;2022-11-27T09:02:59;4.00;;;3.00;;
56517;SDS011;42419;48.760;2.322;2022-11-27T09:05:26;5.40;;;2.67;;
56517;SDS011;42419;48.760;2.322;2022-11-27T09:07:52;4.63;;;2.30;;
56517;SDS011;42419;48.760;2.322;2022-11-27T09:10:18;3.93;;;3.00;;
56517;SDS011;42419;48.760;2.322;2022-11-27T09:12:44;4.70;;;3.20;;
56517;SDS011;42419;48.760;2.322;2022-11-27T09:15:10;3.13;;;2.60;;
56517;SDS011;42419;48.760;2.322;2022-11-27T09:17:36;6.47;;;2.57;;
56517;SDS011;42419;48.760;2.322;2022-11-27T09:20:02;3.13;;;2.60;;
56517;SDS011;42419;48.760;2.322;2022-11-27T09:22:29;3.70;;;2.53;;
56517;SDS011;42419;48.760;2.322;2022-11-27T09:24:54;2.57;;;2.37;;
56517;SDS011;42419;48.760;2.322;2022-11-27T09:27:19;3.47;;;2.10;;
56517;SDS011;42419;48.760;2.322;2022-11-27T09:29:44;3.33;;;2.50;;
56517;SDS011;42419;48.760;2.322;2022-11-27T09:32:10;4.40;;;2.60;;
56517;SDS011;42419;48.760;2.322;2022-11-27T09:34:35;3.80;;;2.50;;
56517;SDS011;42419;48.760;2.322;2022-11-27T09:37:00;3.70;;;2.60;;
56517;SDS011;42419;48.760;2.322;2022-11-27T09:39:28;3.07;;;2.30;;
56517;SDS011;42419;48.760;2.322;2022-11-27T09:41:57;4.10;;;2.73;;
56517;SDS011;42419;48.760;2.322;2022-11-27T09:49:42;3.40;;;2.40;;
56517;SDS011;42419;48.760;2.322;2022-11-27T09:52:19;2.93;;;2.47;;
56517;SDS011;42419;48.760;2.322;2022-11-27T09:54:51;3.37;;;2.57;;
56517;SDS011;42419;48.760;2.322;2022-11-27T09:57:24;2.70;;;2.50;;
56517;SDS011;42419;48.760;2.322;2022-11-27T09:59:57;4.97;;;2.30;;
56517;SDS011;42419;48.760;2.322;2022-11-27T10:02:31;3.10;;;2.80;;
56517;SDS011;42419;48.760;2.322;2022-11-27T10:04:59;3.03;;;2.17;;
56517;SDS011;42419;48.760;2.322;2022-11-27T10:12:51;3.70;;;2.60;;
56517;SDS011;42419;48.760;2.322;2022-11-27T10:15:30;3.03;;;2.70;;
56517;SDS011;42419;48.760;2.322;2022-11-27T10:18:18;3.00;;;2.70;;
56517;SDS011;42419;48.760;2.322;2022-11-27T10:20:57;3.60;;;2.83;;
56517;SDS011;42419;48.760;2.322;2022-11-27T10:31:56;2.90;;;2.30;;
56517;SDS011;42419;48.760;2.322;2022-11-27T10:40:02;4.30;;;3.70;;
56517;SDS011;42419;48.760;2.322;2022-11-27T10:42:33;5.10;;;4.20;;
56517;SDS011;42419;48.760;2.322;2022-11-27T10:45:04;5.43;;;4.37;;
56517;SDS011;42419;48.760;2.322;2022-11-27T10:47:32;5.40;;;4.17;;
56517;SDS011;42419;48.760;2.322;2022-11-27T10:49:58;6.03;;;4.33;;
56517;SDS011;42419;48.760;2.322;2022-11-27T10:52:23;6.27;;;3.77;;
56517;SDS011;42419;48.760;2.322;2022-11-27T10:54:52;5.07;;;3.80;;
56517;SDS011;42419;48.760;2.322;2022-11-27T10:57:34;5.27;;;3.97;;
56517;SDS011;42419;48.760;2.322;2022-11-27T11:02:42;6.40;;;3.73;;
56517;SDS011;42419;48.760;2.322;2022-11-27T11:05:12;4.53;;;3.50;;
56517;SDS011;42419;48.760;2.322;2022-11-27T11:13:08;5.23;;;3.33;;
56517;SDS011;42419;48.760;2.322;2022-11-27T11:18:27;5.07;;;3.57;;
56517;SDS011;42419;48.760;2.322;2022-11-27T11:21:01;4.43;;;2.70;;
56517;SDS011;42419;48.760;2.322;2022-11-27T11:26:22;4.43;;;3.30;;
56517;SDS011;42419;48.760;2.322;2022-11-27T11:28:54;6.13;;;3.07;;
56517;SDS011;42419;48.760;2.322;2022-11-27T11:31:27;4.20;;;2.93;;
56517;SDS011;42419;48.760;2.322;2022-11-27T11:33:56;4.03;;;3.30;;
56517;SDS011;42419;48.760;2.322;2022-11-27T11:36:24;4.40;;;3.33;;
56517;SDS011;42419;48.760;2.322;2022-11-27T11:38:49;4.93;;;2.97;;
56517;SDS011;42419;48.760;2.322;2022-11-27T11:41:16;4.63;;;3.47;;
56517;SDS011;42419;48.760;2.322;2022-11-27T11:43:51;3.93;;;3.10;;
56517;SDS011;42419;48.760;2.322;2022-11-27T11:46:23;3.97;;;3.37;;
56517;SDS011;42419;48.760;2.322;2022-11-27T11:48:56;4.00;;;3.23;;
56517;SDS011;42419;48.760;2.322;2022-11-27T11:51:32;3.47;;;3.17;;
56517;SDS011;42419;48.760;2.322;2022-11-27T11:56:49;5.57;;;3.57;;
56517;SDS011;42419;48.760;2.322;2022-11-27T12:07:59;3.07;;;2.80;;
56517;SDS011;42419;48.760;2.322;2022-11-27T12:24:44;4.50;;;3.63;;
56517;SDS011;42419;48.760;2.322;2022-11-27T12:32:44;6.13;;;3.10;;
56517;SDS011;42419;48.760;2.322;2022-11-27T12:38:19;8.27;;;5.97;;
56517;SDS011;42419;48.760;2.322;2022-11-27T12:44:04;11.70;;;6.37;;
56517;SDS011;42419;48.760;2.322;2022-11-27T12:49:31;6.80;;;4.47;;
56517;SDS011;42419;48.760;2.322;2022-11-27T12:52:05;8.90;;;4.80;;
56517;SDS011;42419;48.760;2.322;2022-11-27T12:54:41;10.17;;;4.57;;
56517;SDS011;42419;48.760;2.322;2022-11-27T12:57:33;8.33;;;4.63;;
56517;SDS011;42419;48.760;2.322;2022-11-27T13:00:04;7.30;;;4.70;;
56517;SDS011;42419;48.760;2.322;2022-11-27T13:02:36;10.43;;;4.70;;
56517;SDS011;42419;48.760;2.322;2022-11-27T13:05:10;9.93;;;4.17;;
56517;SDS011;42419;48.760;2.322;2022-11-27T13:07:47;9.33;;;5.10;;
56517;SDS011;42419;48.760;2.322;2022-11-27T13:10:33;4.93;;;4.03;;
56517;SDS011;42419;48.760;2.322;2022-11-27T13:13:10;4.73;;;4.03;;
56517;SDS011;42419;48.760;2.322;2022-11-27T13:15:44;5.17;;;3.73;;
56517;SDS011;42419;48.760;2.322;2022-11-27T13:21:09;6.10;;;3.93;;
56517;SDS011;42419;48.760;2.322;2022-11-27T13:23:38;5.10;;;3.77;;
56517;SDS011;42419;48.760;2.322;2022-11-27T13:26:04;4.47;;;3.50;;
56517;SDS011;42419;48.760;2.322;2022-11-27T13:28:51;7.00;;;3.77;;
56517;SDS011;42419;48.760;2.322;2022-11-27T13:31:25;5.67;;;4.00;;
56517;SDS011;42419;48.760;2.322;2022-11-27T13:34:16;6.57;;;3.77;;
56517;SDS011;42419;48.760;2.322;2022-11-27T13:36:45;4.73;;;3.97;;
56517;SDS011;42419;48.760;2.322;2022-11-27T13:39:38;4.10;;;3.30;;
56517;SDS011;42419;48.760;2.322;2022-11-27T13:44:38;4.77;;;3.50;;
56517;SDS011;42419;48.760;2.322;2022-11-27T13:47:12;7.40;;;3.47;;
56517;SDS011;42419;48.760;2.322;2022-11-27T13:49:41;4.03;;;3.50;;
56517;SDS011;42419;48.760;2.322;2022-11-27T13:52:18;4.83;;;3.37;;
56517;SDS011;42419;48.760;2.322;2022-11-27T13:57:53;4.70;;;3.57;;
56517;SDS011;42419;48.760;2.322;2022-11-27T14:00:29;5.30;;;3.63;;
56517;SDS011;42419;48.760;2.322;2022-11-27T14:03:06;4.00;;;3.23;;
56517;SDS011;42419;48.760;2.322;2022-11-27T14:05:43;4.80;;;2.93;;
56517;SDS011;42419;48.760;2.322;2022-11-27T14:11:06;4.20;;;3.17;;
56517;SDS011;42419;48.760;2.322;2022-11-27T14:13:43;6.53;;;3.60;;
56517;SDS011;42419;48.760;2.322;2022-11-27T14:16:31;4.70;;;3.00;;
56517;SDS011;42419;48.760;2.322;2022-11-27T14:19:03;3.47;;;3.13;;
56517;SDS011;42419;48.760;2.322;2022-11-27T14:23:59;4.37;;;3.67;;
56517;SDS011;42419;48.760;2.322;2022-11-27T14:26:30;6.83;;;3.40;;
56517;SDS011;42419;48.760;2.322;2022-11-27T14:28:56;7.27;;;3.10;;
56517;SDS011;42419;48.760;2.322;2022-11-27T14:33:51;5.03;;;3.47;;
56517;SDS011;42419;48.760;2.322;2022-11-27T14:36:20;4.70;;;3.33;;
56517;SDS011;42419;48.760;2.322;2022-11-27T14:38:48;4.67;;;3.67;;
56517;SDS011;42419;48.760;2.322;2022-11-27T14:41:17;6.10;;;3.47;;
56517;SDS011;42419;48.760;2.322;2022-11-27T14:43:44;6.67;;;4.00;;
56517;SDS011;42419;48.760;2.322;2022-11-27T14:46:14;6.60;;;3.40;;
56517;SDS011;42419;48.760;2.322;2022-11-27T14:48:42;5.97;;;3.10;;
56517;SDS011;42419;48.760;2.322;2022-11-27T14:51:09;6.33;;;3.60;;
56517;SDS011;42419;48.760;2.322;2022-11-27T14:53:40;5.43;;;3.13;;
56517;SDS011;42419;48.760;2.322;2022-11-27T14:56:06;6.90;;;3.20;;
56517;SDS011;42419;48.760;2.322;2022-11-27T14:58:31;4.00;;;2.73;;
56517;SDS011;42419;48.760;2.322;2022-11-27T15:01:02;3.70;;;2.90;;
56517;SDS011;42419;48.760;2.322;2022-11-27T15:03:29;4.50;;;3.60;;
56517;SDS011;42419;48.760;2.322;2022-11-27T15:05:56;4.53;;;2.70;;
56517;SDS011;42419;48.760;2.322;2022-11-27T15:08:27;5.00;;;3.67;;
56517;SDS011;42419;48.760;2.322;2022-11-27T15:10:56;5.00;;;3.80;;
56517;SDS011;42419;48.760;2.322;2022-11-27T15:13:27;6.80;;;3.67;;
56517;SDS011;42419;48.760;2.322;2022-11-27T15:18:30;4.23;;;3.37;;
56517;SDS011;42419;48.760;2.322;2022-11-27T15:20:57;4.67;;;3.40;;
56517;SDS011;42419;48.760;2.322;2022-11-27T15:23:26;8.43;;;3.50;;
56517;SDS011;42419;48.760;2.322;2022-11-27T15:28:24;4.13;;;3.03;;
56517;SDS011;42419;48.760;2.322;2022-11-27T15:30:52;7.40;;;4.30;;
56517;SDS011;42419;48.760;2.322;2022-11-27T15:33:29;4.63;;;2.83;;
56517;SDS011;42419;48.760;2.322;2022-11-27T15:39:04;6.30;;;3.30;;
56517;SDS011;42419;48.760;2.322;2022-11-27T15:44:16;5.03;;;3.40;;
56517;SDS011;42419;48.760;2.322;2022-11-27T15:46:42;4.83;;;2.77;;
56517;SDS011;42419;48.760;2.322;2022-11-27T15:49:11;4.03;;;3.30;;
56517;SDS011;42419;48.760;2.322;2022-11-27T15:51:37;4.47;;;2.90;;
56517;SDS011;42419;48.760;2.322;2022-11-27T15:54:03;3.43;;;3.13;;
56517;SDS011;42419;48.760;2.322;2022-11-27T15:56:28;3.97;;;3.37;;
56517;SDS011;42419;48.760;2.322;2022-11-27T15:58:53;3.70;;;3.20;;
56517;SDS011;42419;48.760;2.322;2022-11-27T16:01:19;4.47;;;3.37;;
56517;SDS011;42419;48.760;2.322;2022-11-27T16:03:44;2.87;;;2.67;;
56517;SDS011;42419;48.760;2.322;2022-11-27T16:06:09;4.30;;;3.13;;
56517;SDS011;42419;48.760;2.322;2022-11-27T16:08:35;3.83;;;3.33;;
56517;SDS011;42419;48.760;2.322;2022-11-27T16:11:01;4.40;;;2.90;;
56517;SDS011;42419;48.760;2.322;2022-11-27T16:13:28;4.70;;;3.63;;
56517;SDS011;42419;48.760;2.322;2022-11-27T16:15:59;5.63;;;3.53;;
56517;SDS011;42419;48.760;2.322;2022-11-27T16:18:28;4.93;;;3.10;;
56517;SDS011;42419;48.760;2.322;2022-11-27T16:20:55;3.80;;;3.33;;
56517;SDS011;42419;48.760;2.322;2022-11-27T16:23:25;6.13;;;3.40;;
56517;SDS011;42419;48.760;2.322;2022-11-27T16:25:50;4.37;;;3.70;;
56517;SDS011;42419;48.760;2.322;2022-11-27T16:28:15;7.33;;;3.50;;
56517;SDS011;42419;48.760;2.322;2022-11-27T16:30:41;4.27;;;3.33;;
56517;SDS011;42419;48.760;2.322;2022-11-27T16:33:06;4.53;;;3.17;;
56517;SDS011;42419;48.760;2.322;2022-11-27T16:35:32;4.43;;;3.00;;
56517;SDS011;42419;48.760;2.322;2022-11-27T16:37:57;4.20;;;3.50;;
56517;SDS011;42419;48.760;2.322;2022-11-27T16:40:22;4.90;;;3.43;;
56517;SDS011;42419;48.760;2.322;2022-11-27T16:42:48;3.73;;;3.40;;
56517;SDS011;42419;48.760;2.322;2022-11-27T16:45:13;3.60;;;3.03;;
56517;SDS011;42419;48.760;2.322;2022-11-27T16:47:39;4.73;;;3.57;;
56517;SDS011;42419;48.760;2.322;2022-11-27T16:50:04;4.73;;;4.20;;
56517;SDS011;42419;48.760;2.322;2022-11-27T16:52:30;4.03;;;3.63;;
56517;SDS011;42419;48.760;2.322;2022-11-27T16:54:55;8.53;;;4.87;;
56517;SDS011;42419;48.760;2.322;2022-11-27T16:57:21;8.60;;;4.40;;
56517;SDS011;42419;48.760;2.322;2022-11-27T16:59:47;5.60;;;5.03;;
56517;SDS011;42419;48.760;2.322;2022-11-27T17:02:14;8.03;;;5.73;;
56517;SDS011;42419;48.760;2.322;2022-11-27T17:04:40;5.90;;;5.07;;
56517;SDS011;42419;48.760;2.322;2022-11-27T17:07:06;7.70;;;6.10;;
56517;SDS011;42419;48.760;2.322;2022-11-27T17:09:32;7.30;;;6.07;;
56517;SDS011;42419;48.760;2.322;2022-11-27T17:11:57;8.70;;;5.90;;